sensor_id;sensor_type;location;lat;lon;timestamp;pressure;altitude;pressure_sealevel;temperature;humidity
13765;BME280;6953;48.810;9.204;2023-03-04T00:00:33;99308.78;;;3.26;95.42
13765;BME280;6953;48.810;9.204;2023-03-04T00:02:59;99091.31;;;1.95;95.72
13765;BME280;6953;48.810;9.204;2023-03-04T00:05:24;99311.47;;;3.18;96.11
13765;BME280;6953;48.810;9.204;2023-03-04T00:07:49;99018.69;;;1.44;95.86
13765;BME280;6953;48.810;9.204;2023-03-04T00:10:15;99011.84;;;1.41;95.79
13765;BME280;6953;48.810;9.204;2023-03-04T00:12:40;99368.56;;;3.14;96.37
13765;BME280;6953;48.810;9.204;2023-03-04T00:15:06;99311.03;;;2.87;96.34
13765;BME280;6953;48.810;9.204;2023-03-04T00:17:32;99297.13;;;2.95;96.80
13765;BME280;6953;48.810;9.204;2023-03-04T00:19:57;99335.06;;;3.01;96.61
13765;BME280;6953;48.810;9.204;2023-03-04T00:22:22;99285.22;;;2.79;96.84
13765;BME280;6953;48.810;9.204;2023-03-04T00:24:48;99354.16;;;2.92;97.38
13765;BME280;6953;48.810;9.204;2023-03-04T00:27:13;99317.03;;;2.92;97.13
13765;BME280;6953;48.810;9.204;2023-03-04T00:29:39;99323.09;;;2.88;97.01
13765;BME280;6953;48.810;9.204;2023-03-04T00:32:04;99292.59;;;2.43;97.13
13765;BME280;6953;48.810;9.204;2023-03-04T00:34:29;99230.66;;;2.25;97.36
13765;BME280;6953;48.810;9.204;2023-03-04T00:36:55;99204.09;;;2.08;97.80
13765;BME280;6953;48.810;9.204;2023-03-04T00:39:28;99350.22;;;2.60;98.12
13765;BME280;6953;48.810;9.204;2023-03-04T00:41:54;99007.25;;;0.86;97.94
13765;BME280;6953;48.810;9.204;2023-03-04T00:44:19;99325.94;;;2.67;98.60
13765;BME280;6953;48.810;9.204;2023-03-04T00:46:44;99372.63;;;2.64;99.24
13765;BME280;6953;48.810;9.204;2023-03-04T00:49:10;99326.91;;;2.60;99.01
13765;BME280;6953;48.810;9.204;2023-03-04T00:51:35;99318.34;;;2.55;98.43
13765;BME280;6953;48.810;9.204;2023-03-04T00:54:01;99328.06;;;2.32;99.19
13765;BME280;6953;48.810;9.204;2023-03-04T00:56:27;99078.41;;;1.14;98.84
13765;BME280;6953;48.810;9.204;2023-03-04T00:58:52;99318.41;;;2.49;99.64
13765;BME280;6953;48.810;9.204;2023-03-04T01:01:18;99324.44;;;2.48;99.85
13765;BME280;6953;48.810;9.204;2023-03-04T01:03:43;99313.25;;;2.46;99.71
13765;BME280;6953;48.810;9.204;2023-03-04T01:06:08;99323.66;;;2.43;99.31
13765;BME280;6953;48.810;9.204;2023-03-04T01:08:35;99302.16;;;2.35;100.00
13765;BME280;6953;48.810;9.204;2023-03-04T01:11:00;99307.28;;;2.41;100.00
13765;BME280;6953;48.810;9.204;2023-03-04T01:13:25;99315.00;;;2.45;100.00
13765;BME280;6953;48.810;9.204;2023-03-04T01:15:51;99284.97;;;2.29;100.00
13765;BME280;6953;48.810;9.204;2023-03-04T01:18:16;99342.63;;;2.43;99.94
13765;BME280;6953;48.810;9.204;2023-03-04T01:20:41;99314.16;;;2.43;100.00
13765;BME280;6953;48.810;9.204;2023-03-04T01:23:07;99345.19;;;2.45;100.00
13765;BME280;6953;48.810;9.204;2023-03-04T01:25:32;99286.66;;;2.32;100.00
13765;BME280;6953;48.810;9.204;2023-03-04T01:27:57;98974.91;;;0.49;99.95
13765;BME280;6953;48.810;9.204;2023-03-04T01:30:23;99297.00;;;2.35;100.00
13765;BME280;6953;48.810;9.204;2023-03-04T01:32:48;98986.97;;;0.46;100.00
13765;BME280;6953;48.810;9.204;2023-03-04T01:35:13;99304.19;;;2.04;100.00
13765;BME280;6953;48.810;9.204;2023-03-04T01:37:39;99021.31;;;0.54;100.00
13765;BME280;6953;48.810;9.204;2023-03-04T01:40:05;99360.16;;;2.16;100.00
13765;BME280;6953;48.810;9.204;2023-03-04T01:42:32;99301.53;;;2.13;100.00
13765;BME280;6953;48.810;9.204;2023-03-04T01:44:59;99240.66;;;1.78;100.00
13765;BME280;6953;48.810;9.204;2023-03-04T01:47:28;99324.81;;;2.12;100.00
13765;BME280;6953;48.810;9.204;2023-03-04T01:49:55;99303.28;;;2.10;100.00
13765;BME280;6953;48.810;9.204;2023-03-04T01:52:21;99162.72;;;1.25;100.00
13765;BME280;6953;48.810;9.204;2023-03-04T01:54:47;99193.56;;;1.45;100.00
13765;BME280;6953;48.810;9.204;2023-03-04T01:57:18;98980.25;;;0.24;100.00
13765;BME280;6953;48.810;9.204;2023-03-04T01:59:45;99297.31;;;2.03;100.00
13765;BME280;6953;48.810;9.204;2023-03-04T02:02:11;99288.81;;;1.91;100.00
13765;BME280;6953;48.810;9.204;2023-03-04T02:04:38;99117.41;;;0.90;100.00
13765;BME280;6953;48.810;9.204;2023-03-04T02:07:04;98980.41;;;0.03;100.00
13765;BME280;6953;48.810;9.204;2023-03-04T02:09:31;99281.19;;;1.75;100.00
13765;BME280;6953;48.810;9.204;2023-03-04T02:11:57;99303.56;;;1.80;100.00
13765;BME280;6953;48.810;9.204;2023-03-04T02:14:23;99309.72;;;1.66;100.00
13765;BME280;6953;48.810;9.204;2023-03-04T02:16:49;99295.00;;;1.75;100.00
13765;BME280;6953;48.810;9.204;2023-03-04T02:19:23;99294.13;;;1.75;100.00
13765;BME280;6953;48.810;9.204;2023-03-04T02:21:52;99276.97;;;1.68;100.00
13765;BME280;6953;48.810;9.204;2023-03-04T02:26:59;99194.63;;;1.23;100.00
13765;BME280;6953;48.810;9.204;2023-03-04T02:29:24;99040.41;;;0.32;100.00
13765;BME280;6953;48.810;9.204;2023-03-04T02:31:52;99114.91;;;0.80;100.00
13765;BME280;6953;48.810;9.204;2023-03-04T02:34:20;99276.84;;;1.77;100.00
13765;BME280;6953;48.810;9.204;2023-03-04T02:36:47;98969.25;;;0.04;100.00
13765;BME280;6953;48.810;9.204;2023-03-04T02:41:50;99331.09;;;1.86;100.00
13765;BME280;6953;48.810;9.204;2023-03-04T02:44:22;99085.81;;;0.60;100.00
13765;BME280;6953;48.810;9.204;2023-03-04T02:46:49;99191.31;;;1.06;100.00
13765;BME280;6953;48.810;9.204;2023-03-04T02:49:15;99266.69;;;1.60;100.00
13765;BME280;6953;48.810;9.204;2023-03-04T02:51:41;99231.59;;;1.31;100.00
13765;BME280;6953;48.810;9.204;2023-03-04T02:54:18;99019.09;;;0.03;100.00
13765;BME280;6953;48.810;9.204;2023-03-04T02:56:48;99305.47;;;1.60;100.00
13765;BME280;6953;48.810;9.204;2023-03-04T02:59:14;99046.59;;;0.07;100.00
13765;BME280;6953;48.810;9.204;2023-03-04T03:01:40;99297.00;;;1.39;100.00
13765;BME280;6953;48.810;9.204;2023-03-04T03:04:05;98953.28;;;-0.52;100.00
13765;BME280;6953;48.810;9.204;2023-03-04T03:06:31;99020.09;;;-0.19;100.00
13765;BME280;6953;48.810;9.204;2023-03-04T03:08:56;99084.44;;;0.06;100.00
13765;BME280;6953;48.810;9.204;2023-03-04T03:11:21;99304.75;;;1.40;100.00
13765;BME280;6953;48.810;9.204;2023-03-04T03:13:47;99244.75;;;0.97;100.00
13765;BME280;6953;48.810;9.204;2023-03-04T03:16:12;99144.44;;;0.37;100.00
13765;BME280;6953;48.810;9.204;2023-03-04T03:18:37;99286.84;;;1.13;100.00
13765;BME280;6953;48.810;9.204;2023-03-04T03:21:03;99080.19;;;-0.09;100.00
13765;BME280;6953;48.810;9.204;2023-03-04T03:23:28;98970.56;;;-0.78;100.00
13765;BME280;6953;48.810;9.204;2023-03-04T03:25:54;99302.38;;;1.09;100.00
13765;BME280;6953;48.810;9.204;2023-03-04T03:28:19;98686.53;;;-2.55;100.00
13765;BME280;6953;48.810;9.204;2023-03-04T03:30:44;99305.00;;;0.97;100.00
13765;BME280;6953;48.810;9.204;2023-03-04T03:33:10;99054.59;;;-0.48;100.00
13765;BME280;6953;48.810;9.204;2023-03-04T03:35:35;99306.78;;;0.88;100.00
13765;BME280;6953;48.810;9.204;2023-03-04T03:38:00;99238.06;;;0.64;100.00
13765;BME280;6953;48.810;9.204;2023-03-04T03:40:26;99333.44;;;0.93;100.00
13765;BME280;6953;48.810;9.204;2023-03-04T03:42:51;98966.38;;;-1.01;100.00
13765;BME280;6953;48.810;9.204;2023-03-04T03:45:16;98950.97;;;-1.11;100.00
13765;BME280;6953;48.810;9.204;2023-03-04T03:47:42;99315.34;;;0.96;100.00
13765;BME280;6953;48.810;9.204;2023-03-04T03:50:08;98962.03;;;-0.89;100.00
13765;BME280;6953;48.810;9.204;2023-03-04T03:52:33;99292.03;;;1.04;100.00
13765;BME280;6953;48.810;9.204;2023-03-04T03:54:58;98956.03;;;-0.94;100.00
13765;BME280;6953;48.810;9.204;2023-03-04T03:57:26;99292.13;;;0.90;100.00
13765;BME280;6953;48.810;9.204;2023-03-04T03:59:52;99202.97;;;0.24;100.00
13765;BME280;6953;48.810;9.204;2023-03-04T04:02:17;99134.38;;;-0.18;100.00
13765;BME280;6953;48.810;9.204;2023-03-04T04:04:42;99299.09;;;0.74;100.00
13765;BME280;6953;48.810;9.204;2023-03-04T04:07:07;99294.81;;;0.70;100.00
13765;BME280;6953;48.810;9.204;2023-03-04T04:09:33;99277.69;;;0.56;100.00
13765;BME280;6953;48.810;9.204;2023-03-04T04:11:58;99295.75;;;0.59;100.00
13765;BME280;6953;48.810;9.204;2023-03-04T04:14:23;99326.69;;;0.54;100.00
13765;BME280;6953;48.810;9.204;2023-03-04T04:16:49;99356.81;;;0.55;100.00
13765;BME280;6953;48.810;9.204;2023-03-04T04:19:18;99302.59;;;0.55;100.00
13765;BME280;6953;48.810;9.204;2023-03-04T04:21:44;99288.91;;;0.44;100.00
13765;BME280;6953;48.810;9.204;2023-03-04T04:24:10;99356.84;;;0.51;100.00
13765;BME280;6953;48.810;9.204;2023-03-04T04:26:35;98977.59;;;-1.39;100.00
13765;BME280;6953;48.810;9.204;2023-03-04T04:29:00;99297.44;;;0.52;100.00
13765;BME280;6953;48.810;9.204;2023-03-04T04:31:26;99305.19;;;0.52;100.00
13765;BME280;6953;48.810;9.204;2023-03-04T04:33:51;99305.22;;;0.57;100.00
13765;BME280;6953;48.810;9.204;2023-03-04T04:36:16;99095.84;;;-0.56;100.00
13765;BME280;6953;48.810;9.204;2023-03-04T04:38:42;99302.56;;;0.66;100.00
13765;BME280;6953;48.810;9.204;2023-03-04T04:41:29;99307.78;;;0.60;100.00
13765;BME280;6953;48.810;9.204;2023-03-04T04:43:56;99223.69;;;0.03;100.00
13765;BME280;6953;48.810;9.204;2023-03-04T04:46:22;99134.44;;;-0.48;100.00
13765;BME280;6953;48.810;9.204;2023-03-04T04:48:47;99327.59;;;0.44;100.00
13765;BME280;6953;48.810;9.204;2023-03-04T04:51:13;99327.56;;;0.58;100.00
13765;BME280;6953;48.810;9.204;2023-03-04T04:53:39;99308.56;;;0.72;100.00
13765;BME280;6953;48.810;9.204;2023-03-04T04:56:12;99310.28;;;0.72;100.00
13765;BME280;6953;48.810;9.204;2023-03-04T04:58:38;99357.66;;;0.62;100.00
13765;BME280;6953;48.810;9.204;2023-03-04T05:01:03;99307.75;;;0.64;100.00
13765;BME280;6953;48.810;9.204;2023-03-04T05:03:29;99203.03;;;0.02;100.00
13765;BME280;6953;48.810;9.204;2023-03-04T05:05:54;99292.31;;;0.48;100.00
13765;BME280;6953;48.810;9.204;2023-03-04T05:08:19;99304.34;;;0.52;100.00
13765;BME280;6953;48.810;9.204;2023-03-04T05:10:45;99308.63;;;0.51;100.00
13765;BME280;6953;48.810;9.204;2023-03-04T05:13:10;99120.78;;;-0.64;100.00
13765;BME280;6953;48.810;9.204;2023-03-04T05:15:36;99301.81;;;0.40;100.00
13765;BME280;6953;48.810;9.204;2023-03-04T05:18:02;99294.09;;;0.32;100.00
13765;BME280;6953;48.810;9.204;2023-03-04T05:20:28;99185.13;;;-0.43;100.00
13765;BME280;6953;48.810;9.204;2023-03-04T05:22:53;99319.88;;;0.47;100.00
13765;BME280;6953;48.810;9.204;2023-03-04T05:25:18;99313.00;;;0.43;100.00
13765;BME280;6953;48.810;9.204;2023-03-04T05:27:44;99373.19;;;0.47;100.00
13765;BME280;6953;48.810;9.204;2023-03-04T05:30:10;99329.31;;;0.44;100.00
13765;BME280;6953;48.810;9.204;2023-03-04T05:32:35;99323.31;;;0.40;100.00
13765;BME280;6953;48.810;9.204;2023-03-04T05:35:01;99040.19;;;-1.28;100.00
13765;BME280;6953;48.810;9.204;2023-03-04T05:37:26;99312.22;;;0.01;100.00
13765;BME280;6953;48.810;9.204;2023-03-04T05:39:51;99363.75;;;0.25;100.00
13765;BME280;6953;48.810;9.204;2023-03-04T05:42:17;99026.50;;;-1.48;100.00
13765;BME280;6953;48.810;9.204;2023-03-04T05:44:42;99325.09;;;0.23;100.00
13765;BME280;6953;48.810;9.204;2023-03-04T05:47:07;99331.97;;;0.27;100.00
13765;BME280;6953;48.810;9.204;2023-03-04T05:49:32;99355.16;;;0.23;100.00
13765;BME280;6953;48.810;9.204;2023-03-04T05:51:58;99332.81;;;0.20;100.00
13765;BME280;6953;48.810;9.204;2023-03-04T05:54:23;99340.56;;;0.20;100.00
13765;BME280;6953;48.810;9.204;2023-03-04T05:56:48;99371.50;;;0.17;100.00
13765;BME280;6953;48.810;9.204;2023-03-04T05:59:14;99344.00;;;0.13;100.00
13765;BME280;6953;48.810;9.204;2023-03-04T06:01:44;99347.44;;;0.12;100.00
13765;BME280;6953;48.810;9.204;2023-03-04T06:04:10;99365.50;;;0.05;100.00
13765;BME280;6953;48.810;9.204;2023-03-04T06:06:35;99333.69;;;0.10;100.00
13765;BME280;6953;48.810;9.204;2023-03-04T06:09:00;99255.53;;;-0.35;100.00
13765;BME280;6953;48.810;9.204;2023-03-04T06:11:26;99329.41;;;0.09;100.00
13765;BME280;6953;48.810;9.204;2023-03-04T06:13:51;99307.09;;;-0.02;100.00
13765;BME280;6953;48.810;9.204;2023-03-04T06:16:16;99347.44;;;0.23;100.00
13765;BME280;6953;48.810;9.204;2023-03-04T06:18:42;99008.47;;;-1.72;100.00
13765;BME280;6953;48.810;9.204;2023-03-04T06:21:07;99341.41;;;0.25;100.00
13765;BME280;6953;48.810;9.204;2023-03-04T06:23:32;99356.88;;;0.36;100.00
13765;BME280;6953;48.810;9.204;2023-03-04T06:25:59;99392.09;;;0.43;100.00
13765;BME280;6953;48.810;9.204;2023-03-04T06:28:25;99349.13;;;0.39;100.00
13765;BME280;6953;48.810;9.204;2023-03-04T06:30:51;99354.25;;;0.48;100.00
13765;BME280;6953;48.810;9.204;2023-03-04T06:33:17;99250.38;;;-0.15;100.00
13765;BME280;6953;48.810;9.204;2023-03-04T06:35:42;99372.28;;;0.66;100.00
13765;BME280;6953;48.810;9.204;2023-03-04T06:38:08;99099.34;;;-0.85;100.00
13765;BME280;6953;48.810;9.204;2023-03-04T06:40:34;99373.94;;;0.86;100.00
13765;BME280;6953;48.810;9.204;2023-03-04T06:42:59;99380.75;;;0.99;100.00
13765;BME280;6953;48.810;9.204;2023-03-04T06:45:24;99385.88;;;1.15;100.00
13765;BME280;6953;48.810;9.204;2023-03-04T06:47:49;99331.72;;;0.92;100.00
13765;BME280;6953;48.810;9.204;2023-03-04T06:50:15;99392.63;;;1.40;100.00
13765;BME280;6953;48.810;9.204;2023-03-04T06:52:40;99375.34;;;1.45;100.00
13765;BME280;6953;48.810;9.204;2023-03-04T06:55:06;99448.47;;;1.67;100.00
13765;BME280;6953;48.810;9.204;2023-03-04T06:57:32;99107.56;;;0.15;100.00
13765;BME280;6953;48.810;9.204;2023-03-04T06:59:57;99308.13;;;1.53;100.00
13765;BME280;6953;48.810;9.204;2023-03-04T07:02:23;99160.47;;;0.88;100.00
13765;BME280;6953;48.810;9.204;2023-03-04T07:04:48;99366.81;;;2.39;100.00
13765;BME280;6953;48.810;9.204;2023-03-04T07:07:13;99396.66;;;2.78;100.00
13765;BME280;6953;48.810;9.204;2023-03-04T07:09:39;99384.50;;;2.81;100.00
13765;BME280;6953;48.810;9.204;2023-03-04T07:12:04;99428.31;;;3.04;100.00
13765;BME280;6953;48.810;9.204;2023-03-04T07:14:30;99349.13;;;2.77;100.00
13765;BME280;6953;48.810;9.204;2023-03-04T07:16:56;99383.19;;;3.18;100.00
13765;BME280;6953;48.810;9.204;2023-03-04T07:19:22;99123.56;;;1.66;100.00
13765;BME280;6953;48.810;9.204;2023-03-04T07:21:48;99407.94;;;3.44;100.00
13765;BME280;6953;48.810;9.204;2023-03-04T07:24:13;99346.03;;;3.19;100.00
13765;BME280;6953;48.810;9.204;2023-03-04T07:26:39;99345.03;;;3.29;98.06
13765;BME280;6953;48.810;9.204;2023-03-04T07:29:04;99411.66;;;3.86;96.59
13765;BME280;6953;48.810;9.204;2023-03-04T07:31:31;99138.13;;;2.40;94.69
13765;BME280;6953;48.810;9.204;2023-03-04T07:34:03;99348.59;;;3.79;94.16
13765;BME280;6953;48.810;9.204;2023-03-04T07:36:29;99428.41;;;4.19;92.62
13765;BME280;6953;48.810;9.204;2023-03-04T07:38:55;99334.75;;;3.80;92.83
13765;BME280;6953;48.810;9.204;2023-03-04T07:41:23;99429.69;;;4.47;92.47
13765;BME280;6953;48.810;9.204;2023-03-04T07:43:49;99426.16;;;4.51;91.60
13765;BME280;6953;48.810;9.204;2023-03-04T07:46:15;99416.03;;;4.36;90.88
13765;BME280;6953;48.810;9.204;2023-03-04T07:48:40;99416.38;;;4.65;89.97
13765;BME280;6953;48.810;9.204;2023-03-04T07:53:35;99211.84;;;3.34;87.33
13765;BME280;6953;48.810;9.204;2023-03-04T07:56:02;99366.91;;;4.23;87.42
13765;BME280;6953;48.810;9.204;2023-03-04T07:58:27;99372.13;;;4.23;88.05
13765;BME280;6953;48.810;9.204;2023-03-04T08:00:53;99419.75;;;4.70;87.64
13765;BME280;6953;48.810;9.204;2023-03-04T08:03:18;99378.53;;;4.51;87.56
13765;BME280;6953;48.810;9.204;2023-03-04T08:05:43;99103.63;;;2.96;86.22
13765;BME280;6953;48.810;9.204;2023-03-04T08:08:08;99339.16;;;4.26;86.09
13765;BME280;6953;48.810;9.204;2023-03-04T08:10:34;99442.94;;;4.81;86.07
13765;BME280;6953;48.810;9.204;2023-03-04T08:13:00;99447.97;;;4.90;85.97
13765;BME280;6953;48.810;9.204;2023-03-04T08:15:25;99441.63;;;5.04;86.34
13765;BME280;6953;48.810;9.204;2023-03-04T08:17:51;99188.06;;;3.60;85.34
13765;BME280;6953;48.810;9.204;2023-03-04T08:20:17;99378.81;;;4.83;85.79
13765;BME280;6953;48.810;9.204;2023-03-04T08:22:42;99372.72;;;4.84;84.94
13765;BME280;6953;48.810;9.204;2023-03-04T08:25:08;99456.63;;;5.35;84.14
13765;BME280;6953;48.810;9.204;2023-03-04T08:27:33;99327.88;;;4.73;83.83
13765;BME280;6953;48.810;9.204;2023-03-04T08:29:59;99011.09;;;3.02;82.75
13765;BME280;6953;48.810;9.204;2023-03-04T08:32:24;99454.13;;;5.72;83.44
13765;BME280;6953;48.810;9.204;2023-03-04T08:34:49;99455.78;;;5.74;82.65
13765;BME280;6953;48.810;9.204;2023-03-04T08:37:15;99462.78;;;5.72;82.69
13765;BME280;6953;48.810;9.204;2023-03-04T08:39:40;99198.28;;;4.15;81.92
13765;BME280;6953;48.810;9.204;2023-03-04T08:42:05;99183.56;;;4.16;81.86
13765;BME280;6953;48.810;9.204;2023-03-04T08:44:31;99471.28;;;5.82;81.96
13765;BME280;6953;48.810;9.204;2023-03-04T08:46:56;99504.38;;;5.75;80.62
13765;BME280;6953;48.810;9.204;2023-03-04T08:49:21;99468.03;;;5.71;81.74
13765;BME280;6953;48.810;9.204;2023-03-04T08:51:47;99456.84;;;5.66;81.69
13765;BME280;6953;48.810;9.204;2023-03-04T08:54:12;99415.94;;;5.31;81.12
13765;BME280;6953;48.810;9.204;2023-03-04T08:56:39;99422.63;;;5.43;81.63
13765;BME280;6953;48.810;9.204;2023-03-04T08:59:05;99265.72;;;4.62;81.01
13765;BME280;6953;48.810;9.204;2023-03-04T09:01:30;99459.75;;;5.93;80.45
13765;BME280;6953;48.810;9.204;2023-03-04T09:03:55;99462.59;;;6.20;80.47
13765;BME280;6953;48.810;9.204;2023-03-04T09:06:21;99478.56;;;6.42;79.98
13765;BME280;6953;48.810;9.204;2023-03-04T09:08:47;99485.06;;;6.61;79.39
13765;BME280;6953;48.810;9.204;2023-03-04T09:11:13;99212.31;;;5.25;79.28
13765;BME280;6953;48.810;9.204;2023-03-04T09:13:38;99471.63;;;6.77;78.14
13765;BME280;6953;48.810;9.204;2023-03-04T09:16:08;99236.28;;;5.39;77.52
13765;BME280;6953;48.810;9.204;2023-03-04T09:18:35;99463.75;;;6.79;77.78
13765;BME280;6953;48.810;9.204;2023-03-04T09:21:00;99461.72;;;6.90;76.86
13765;BME280;6953;48.810;9.204;2023-03-04T09:23:25;99472.56;;;7.07;77.49
13765;BME280;6953;48.810;9.204;2023-03-04T09:25:51;99461.03;;;7.15;76.85
13765;BME280;6953;48.810;9.204;2023-03-04T09:28:17;99431.13;;;6.96;76.13
13765;BME280;6953;48.810;9.204;2023-03-04T09:30:44;99196.50;;;5.69;75.25
13765;BME280;6953;48.810;9.204;2023-03-04T09:33:09;99337.56;;;6.52;74.82
13765;BME280;6953;48.810;9.204;2023-03-04T09:35:35;99414.50;;;7.00;74.96
13765;BME280;6953;48.810;9.204;2023-03-04T09:38:00;99393.38;;;6.77;75.01
13765;BME280;6953;48.810;9.204;2023-03-04T09:40:29;99464.31;;;7.23;74.99
13765;BME280;6953;48.810;9.204;2023-03-04T09:43:00;99487.06;;;7.17;74.07
13765;BME280;6953;48.810;9.204;2023-03-04T09:45:36;99403.69;;;6.82;73.79
13765;BME280;6953;48.810;9.204;2023-03-04T09:48:04;99497.06;;;7.01;73.51
13765;BME280;6953;48.810;9.204;2023-03-04T09:50:33;99234.78;;;5.64;73.04
13765;BME280;6953;48.810;9.204;2023-03-04T09:55:37;99465.59;;;7.07;72.11
13765;BME280;6953;48.810;9.204;2023-03-04T09:58:27;99468.66;;;7.22;71.93
13765;BME280;6953;48.810;9.204;2023-03-04T10:01:19;99461.19;;;7.41;70.71
13765;BME280;6953;48.810;9.204;2023-03-04T10:04:02;99396.03;;;7.36;68.54
13765;BME280;6953;48.810;9.204;2023-03-04T10:06:28;99462.69;;;8.07;68.15
13765;BME280;6953;48.810;9.204;2023-03-04T10:08:59;99453.53;;;8.49;67.15
13765;BME280;6953;48.810;9.204;2023-03-04T10:11:31;99457.81;;;9.02;64.81
13765;BME280;6953;48.810;9.204;2023-03-04T10:16:40;99259.22;;;8.23;62.42
13765;BME280;6953;48.810;9.204;2023-03-04T10:19:22;99488.34;;;9.27;62.58
13765;BME280;6953;48.810;9.204;2023-03-04T10:21:49;99452.06;;;9.17;62.77
13765;BME280;6953;48.810;9.204;2023-03-04T10:24:20;99461.97;;;9.07;62.68
13765;BME280;6953;48.810;9.204;2023-03-04T10:27:04;99396.63;;;8.81;62.84
13765;BME280;6953;48.810;9.204;2023-03-04T10:29:32;99374.25;;;8.73;62.33
13765;BME280;6953;48.810;9.204;2023-03-04T10:31:58;99387.06;;;8.80;62.39
13765;BME280;6953;48.810;9.204;2023-03-04T10:34:23;99326.59;;;8.39;62.65
13765;BME280;6953;48.810;9.204;2023-03-04T10:36:59;99438.94;;;8.92;62.10
13765;BME280;6953;48.810;9.204;2023-03-04T10:39:38;99203.66;;;7.66;62.43
13765;BME280;6953;48.810;9.204;2023-03-04T10:44:57;99438.81;;;9.21;61.60
13765;BME280;6953;48.810;9.204;2023-03-04T10:47:24;99406.72;;;8.92;60.85
13765;BME280;6953;48.810;9.204;2023-03-04T10:49:58;99202.28;;;7.54;60.10
13765;BME280;6953;48.810;9.204;2023-03-04T10:52:38;99419.34;;;8.79;61.17
13765;BME280;6953;48.810;9.204;2023-03-04T10:55:14;99376.94;;;8.45;60.84
13765;BME280;6953;48.810;9.204;2023-03-04T10:57:42;99189.88;;;7.09;62.15
13765;BME280;6953;48.810;9.204;2023-03-04T11:02:46;99138.13;;;6.68;62.69
13765;BME280;6953;48.810;9.204;2023-03-04T11:07:43;99388.41;;;8.41;62.32
13765;BME280;6953;48.810;9.204;2023-03-04T11:12:34;99411.38;;;8.32;61.10
13765;BME280;6953;48.810;9.204;2023-03-04T11:15:00;99377.59;;;7.99;62.02
13765;BME280;6953;48.810;9.204;2023-03-04T11:17:30;99414.28;;;8.23;62.22
13765;BME280;6953;48.810;9.204;2023-03-04T11:26:02;99409.97;;;8.48;60.90
13765;BME280;6953;48.810;9.204;2023-03-04T11:28:41;99211.38;;;7.17;61.37
13765;BME280;6953;48.810;9.204;2023-03-04T11:31:13;99341.03;;;7.97;61.68
13765;BME280;6953;48.810;9.204;2023-03-04T11:34:03;99178.53;;;7.10;62.20
13765;BME280;6953;48.810;9.204;2023-03-04T11:36:53;99335.94;;;8.22;62.10
13765;BME280;6953;48.810;9.204;2023-03-04T11:39:28;99327.72;;;8.32;60.82
13765;BME280;6953;48.810;9.204;2023-03-04T11:42:05;99329.22;;;8.39;59.72
13765;BME280;6953;48.810;9.204;2023-03-04T11:44:35;99138.50;;;7.11;58.84
13765;BME280;6953;48.810;9.204;2023-03-04T11:47:11;99397.44;;;8.31;59.85
13765;BME280;6953;48.810;9.204;2023-03-04T11:50:07;99146.91;;;6.93;60.32
13765;BME280;6953;48.810;9.204;2023-03-04T11:52:59;99391.31;;;8.32;60.92
13765;BME280;6953;48.810;9.204;2023-03-04T12:03:50;99392.53;;;7.94;62.92
13765;BME280;6953;48.810;9.204;2023-03-04T12:14:29;99358.84;;;7.85;63.41
13765;BME280;6953;48.810;9.204;2023-03-04T12:25:28;99383.16;;;7.59;64.44
13765;BME280;6953;48.810;9.204;2023-03-04T12:31:19;99351.31;;;7.48;64.54
13765;BME280;6953;48.810;9.204;2023-03-04T12:42:20;99077.38;;;5.80;66.22
13765;BME280;6953;48.810;9.204;2023-03-04T12:44:55;99260.59;;;7.00;65.75
13765;BME280;6953;48.810;9.204;2023-03-04T12:47:43;99327.72;;;7.51;65.41
13765;BME280;6953;48.810;9.204;2023-03-04T12:56:00;99317.25;;;7.24;65.51
13765;BME280;6953;48.810;9.204;2023-03-04T12:58:31;99322.00;;;7.12;66.63
13765;BME280;6953;48.810;9.204;2023-03-04T13:01:09;99286.44;;;7.08;66.30
13765;BME280;6953;48.810;9.204;2023-03-04T13:03:43;99256.53;;;6.90;66.40
13765;BME280;6953;48.810;9.204;2023-03-04T13:06:40;99287.19;;;7.13;66.27
13765;BME280;6953;48.810;9.204;2023-03-04T13:09:31;99318.69;;;7.34;66.37
13765;BME280;6953;48.810;9.204;2023-03-04T13:12:10;99291.94;;;7.27;65.99
13765;BME280;6953;48.810;9.204;2023-03-04T13:14:38;99305.25;;;7.46;65.79
13765;BME280;6953;48.810;9.204;2023-03-04T13:17:40;99314.81;;;7.74;65.12
13765;BME280;6953;48.810;9.204;2023-03-04T13:22:54;99328.47;;;7.55;64.98
13765;BME280;6953;48.810;9.204;2023-03-04T13:38:32;99309.22;;;7.85;64.35
13765;BME280;6953;48.810;9.204;2023-03-04T13:42:36;99244.53;;;7.67;62.71
13765;BME280;6953;48.810;9.204;2023-03-04T13:47:13;99346.88;;;8.05;62.79
13765;BME280;6953;48.810;9.204;2023-03-04T13:49:39;99301.28;;;7.88;62.46
13765;BME280;6953;48.810;9.204;2023-03-04T13:52:36;99304.31;;;7.76;62.89
13765;BME280;6953;48.810;9.204;2023-03-04T13:55:35;99305.75;;;7.58;63.10
13765;BME280;6953;48.810;9.204;2023-03-04T13:58:14;99332.63;;;7.62;63.76
13765;BME280;6953;48.810;9.204;2023-03-04T14:00:46;99303.69;;;7.68;64.01
13765;BME280;6953;48.810;9.204;2023-03-04T14:03:19;99313.13;;;7.73;63.48
13765;BME280;6953;48.810;9.204;2023-03-04T14:05:45;99310.47;;;7.46;63.77
13765;BME280;6953;48.810;9.204;2023-03-04T14:08:18;99112.72;;;6.18;64.22
13765;BME280;6953;48.810;9.204;2023-03-04T14:10:53;99218.63;;;6.79;64.57
13765;BME280;6953;48.810;9.204;2023-03-04T14:13:19;99048.63;;;5.83;65.11
13765;BME280;6953;48.810;9.204;2023-03-04T14:15:53;99336.94;;;7.05;65.04
13765;BME280;6953;48.810;9.204;2023-03-04T14:18:19;99299.88;;;6.94;65.94
13765;BME280;6953;48.810;9.204;2023-03-04T14:20:48;99214.94;;;6.57;65.41
13765;BME280;6953;48.810;9.204;2023-03-04T14:23:27;99297.13;;;7.00;65.62
13765;BME280;6953;48.810;9.204;2023-03-04T14:26:09;99291.25;;;6.92;66.79
13765;BME280;6953;48.810;9.204;2023-03-04T14:28:46;99266.50;;;6.76;67.26
13765;BME280;6953;48.810;9.204;2023-03-04T14:31:17;99284.63;;;6.81;67.21
13765;BME280;6953;48.810;9.204;2023-03-04T14:33:45;99062.34;;;5.57;67.57
13765;BME280;6953;48.810;9.204;2023-03-04T14:36:18;99251.78;;;6.45;67.64
13765;BME280;6953;48.810;9.204;2023-03-04T14:38:50;99322.25;;;6.72;67.49
13765;BME280;6953;48.810;9.204;2023-03-04T14:41:24;99284.53;;;6.84;67.54
13765;BME280;6953;48.810;9.204;2023-03-04T14:46:42;99211.34;;;6.61;67.09
13765;BME280;6953;48.810;9.204;2023-03-04T14:49:12;99272.91;;;6.95;66.90
13765;BME280;6953;48.810;9.204;2023-03-04T14:54:45;99267.69;;;6.95;66.98
13765;BME280;6953;48.810;9.204;2023-03-04T14:57:25;99272.25;;;6.87;68.16